METAR Data
IDs: Format: Raw Decoded Include TAF

Data at: 1349 UTC 07 Jul 2020

KOWD 071253Z 19006KT 10SM OVC065 21/15 A3018 RMK AO2 SLP219 T02110150
KOWD 071153Z 15003KT 10SM SCT007 SCT065 19/16 A3018 RMK AO2 SLP220 T01890161 10194 20167 50006
KOWD 071131Z 16005KT 9SM SCT007 BKN065 19/17 A3018 RMK AO2 T01940167
KOWD 071053Z 11003KT 7SM OVC075 18/16 A3018 RMK AO2 SLP220 T01830161
KOWD 070953Z AUTO 00000KT 6SM BR OVC060 18/16 A3018 RMK AO2 SLP218 T01780161
KOWD 070900Z AUTO 00000KT 7SM FEW013 OVC060 17/16 A3016 RMK AO2 T01720156
KOWD 070853Z AUTO 00000KT 2 1/2SM BR BKN065 17/15 A3016 RMK AO2 SLP213 T01720150 53003
KOWD 070847Z AUTO 00000KT 1 3/4SM BR BKN060 17/16 A3016 RMK AO2
KOWD 070817Z AUTO 00000KT 8SM SCT009 BKN065 OVC080 17/15 A3016 RMK AO2 T01720150
KOWD 070810Z AUTO 00000KT 8SM BKN009 OVC065 17/15 A3015 RMK AO2 T01720150
KOWD 070753Z AUTO 00000KT 7SM SCT009 BKN065 BKN080 17/15 A3015 RMK AO2 SLP210 T01720150
KOWD 070653Z AUTO 00000KT 8SM BKN070 17/15 A3014 RMK AO2 SLP206 T01720150
KOWD 070553Z AUTO 00000KT 9SM SCT009 BKN065 18/16 A3015 RMK AO2 SLP211 T01780156 10217 20161 50000
KOWD 070550Z AUTO 00000KT 9SM SCT009 BKN065 17/16 A3016 RMK AO2
KOWD 070453Z AUTO 00000KT 7SM CLR 16/14 A3016 RMK AO2 SLP211 T01610144 402560161
KOWD 070353Z AUTO 00000KT 8SM FEW085 17/15 A3015 RMK AO2 SLP210 T01720150
KOWD 070253Z AUTO 00000KT 10SM BKN075 18/16 A3014 RMK AO2 SLP207 T01830161 51013
KOWD 070153Z 12003KT 10SM BKN080 19/16 A3014 RMK AO2 SLP206 T01890156
KOWD 070053Z 00000KT 10SM FEW080 19/16 A3013 RMK AO2 SLP202 T01890156
KOWD 062353Z 07004KT 10SM CLR 22/15 A3011 RMK AO2 SLP194 T02170150 10256 20217 51003
KOWD 062253Z 08005KT 10SM CLR 23/14 A3010 RMK AO2 SLP194 T02330144
KOWD 062153Z 04006KT 10SM CLR 24/16 A3010 RMK AO2 SLP193 T02390161
KOWD 062053Z 07007KT 10SM CLR 24/16 A3010 RMK AO2 SLP191 T02390156 55000
KOWD 061953Z 09009KT 10SM CLR 24/17 A3009 RMK AO2 SLP188 T02440167
KOWD 061853Z 05007KT 10SM CLR 25/17 A3010 RMK AO2 SLP192 T02500172
KOWD 061805Z 08008KT 10SM FEW020 25/18 A3010 RMK AO2 T02500178
KOWD 061753Z 09006KT 10SM BKN019 24/17 A3010 RMK AO2 SLP191 T02390172 10244 20206 51005
KOWD 061709Z 10005KT 10SM BKN018 24/18 A3010 RMK AO2 T02390183
KOWD 061653Z 06006KT 10SM FEW016 24/18 A3010 RMK AO2 SLP191 T02390178
KOWD 061602Z 07009KT 10SM FEW017 SCT022 OVC030 24/18 A3010 RMK AO2 T02390183
KOWD 061553Z 07008KT 10SM FEW015 BKN022 OVC030 23/18 A3010 RMK AO2 SLP192 T02280178
KOWD 061503Z 06005KT 10SM SCT013 BKN018 OVC025 23/18 A3008 RMK AO2 T02280178
KOWD 061453Z 01004KT 10SM BKN014 BKN018 OVC023 23/18 A3008 RMK AO2 SLP187 T02280178 51017
KOWD 061353Z 03004KT 10SM OVC010 21/18 A3007 RMK AO2 SLP181 T02110178
KOWD 061253Z VRB05KT 10SM OVC013 21/18 A3005 RMK AO2 SLP177 T02110178
KOWD 061238Z 36005KT 9SM OVC012 21/18 A3005 RMK AO2 T02110178
KOWD 061153Z VRB03KT 6SM BR BKN007 OVC012 21/18 A3003 RMK AO2 CIG 003V010 SLP170 70075 T02060183 10206 20172 51020
KOWD 061146Z 35003KT 5SM BR BKN005 OVC012 21/18 A3003 RMK AO2 CIG 003V007 T02060183
KOWD 061136Z 34004KT 4SM BR BKN003 OVC012 21/18 A3003 RMK AO2 CIG 003V006 T02060183
KOWD 061120Z 33003KT 2 1/2SM BR OVC004 20/18 A3002 RMK AO2 T02000183
KOWD 061100Z 35003KT 4SM BR OVC004 20/18 A3002 RMK AO2 T02000178
KOWD 061053Z AUTO 02005KT 5SM BR OVC006 20/18 A3002 RMK AO2 SLP165 T02000178
KOWD 061035Z AUTO 01003KT 6SM BR BKN007 OVC012 20/18 A3001 RMK AO2 T02000178
KOWD 061021Z AUTO 01003KT 6SM BR SCT007 OVC014 20/18 A3001 RMK AO2 T02000178
KOWD 060953Z AUTO 00000KT 5SM BR OVC006 20/18 A2999 RMK AO2 CIG 004V009 SLP156 T02000178
KOWD 060853Z AUTO 00000KT 6SM BR OVC008 20/18 A2997 RMK AO2 CIG 004V011 SLP149 T02000183 53004
KOWD 060814Z AUTO 00000KT 3SM BR SCT003 OVC012 20/18 A2997 RMK AO2 T02000183
KOWD 060805Z AUTO 00000KT 2SM BR BKN003 OVC012 19/18 A2997 RMK AO2 T01940183
KOWD 060753Z AUTO 00000KT 4SM BR OVC004 19/18 A2996 RMK AO2 CIG 002V006 SLP146 T01940178
KOWD 060751Z AUTO 00000KT 4SM BR OVC004 19/18 A2996 RMK AO2 CIG 002V009
KOWD 060731Z AUTO 00000KT 6SM BR BKN008 OVC014 18/17 A2996 RMK AO2 CIG 005V009 T01830172
KOWD 060703Z AUTO 00000KT 3SM BR FEW002 BKN014 18/17 A2996 RMK AO2 T01780167
KOWD 060659Z AUTO 00000KT 1SM BR FEW002 BKN013 18/16 A2996 RMK AO2 T01780161
KOWD 060653Z AUTO 00000KT 1/2SM FG FEW002 SCT013 17/16 A2996 RMK AO2 SLP145 T01720161
KOWD 060647Z AUTO 00000KT 1/2SM FG VV002 17/16 A2996 RMK AO2
KOWD 060632Z AUTO 01003KT 1 3/4SM BR CLR 18/16 A2997 RMK AO2 VIS 1 1/4V5 T01780161
KOWD 060610Z AUTO 00000KT 3SM BR CLR 18/16 A2996 RMK AO2 T01780161
KOWD 060601Z AUTO 00000KT 2 1/2SM BR CLR 18/16 A2996 RMK AO2 VIS 1 1/4V4 T01780161
KOWD 060553Z AUTO 00000KT 3SM BR FEW002 18/16 A2996 RMK AO2 SLP144 60049 T01780161 10239 20178 55001
KOWD 060538Z AUTO 00000KT 1 1/4SM BR FEW002 18/17 A2996 RMK AO2 T01830167
KOWD 060525Z AUTO 00000KT 3/4SM BR VV002 18/16 A2995 RMK AO2 VIS 1/4V4 T01780161
KOWD 060521Z AUTO 00000KT 1 3/4SM BR CLR 18/17 A2995 RMK AO2 VIS 3/4V5 T01830167
KOWD 060453Z AUTO 00000KT 5SM BR CLR 18/17 A2995 RMK AO2 SLP142 T01830167 403060178
KOWD 060401Z AUTO 00000KT 10SM CLR 19/17 A2995 RMK AO2 LTG DSNT E-SW T01940172
KOWD 060353Z AUTO 14004KT 10SM VCTS FEW065 19/17 A2994 RMK AO2 PK WND 34030/0303 LTG DSNT E-SW RAB0258E21 TSE30 SLP139 P0049 T01940172
KOWD 060336Z AUTO 08008KT 10SM VCTS FEW009 BKN070 20/17 A2995 RMK AO2 PK WND 34030/0303 LTG DSNT NE AND E RAB0258E21 TSE30 P0049 T02000172
KOWD 060322Z AUTO 04006KT 10SM TS SCT009 BKN070 OVC100 20/17 A2997 RMK AO2 PK WND 34030/0303 LTG DSNT NE AND E RAB0258E21 P0049 T02000172
KOWD 060316Z AUTO VRB05G16KT 2SM -TSRA BKN009 BKN070 21/17 A2997 RMK AO2 PK WND 34030/0303 LTG DSNT NE AND E AND SW RAB0258 P0049 T02060172
KOWD 060309Z AUTO 20009G30KT 160V250 1/2SM +TSRA SCT007 OVC012 22/17 A2997 RMK AO2 PK WND 34030/0303 LTG DSNT NE AND SW AND W RAB0258 P0049 T02170172
KOWD 060300Z AUTO 35011G20KT 310V020 1 1/2SM +TSRA BR BKN007 OVC012 22/19 A2997 RMK AO2 LTG DSNT ALQDS RAB0258 P0018 T02170194
KOWD 060253Z AUTO 33006KT 7SM TS OVC007 23/21 A2996 RMK AO2 LTG DSNT NW-E TSB22E42B48 PRESRR SLP145 T02280206 53013
KOWD 060228Z AUTO 15004KT 6SM TS BR OVC007 23/21 A2993 RMK AO2 LTG DSNT N AND NW TSB22 T02280206
KOWD 060202Z 17005KT 7SM VCTS BKN008 23/21 A2993 RMK AO2 LTG DSNT NW T02280206
KOWD 060153Z 18008KT 7SM BKN008 23/21 A2992 RMK AO2 LTG DSNT NW SLP132 T02280206